Time;durP1;ratioP1;P1;durP2;ratioP2;P2;SDS_P1;SDS_P2;PMS_P1;PMS_P2;Temp;Humidity;BMP_temperature;BMP_pressure;BME280_temperature;BME280_humidity;BME280_pressure;Samples;Min_cycle;Max_cycle;Signal;HPM_P1;HPM_P2
2022/05/01 00:00:44;;;;;;;7.45;6.75;;;;;;;7.72;71.57;101700.81;4998830;28;20053;-70
2022/05/01 00:03:30;;;;;;;8.48;7.57;;;;;;;7.52;72.09;101694.97;4972617;28;20102;-71
2022/05/01 00:05:55;;;;;;;8.43;7.68;;;;;;;7.46;71.83;101692.72;4995095;28;20014;-71
2022/05/01 00:08:20;;;;;;;11.23;8.48;;;;;;;7.53;72.02;101696.66;4996133;28;20071;-70
2022/05/01 00:10:45;;;;;;;13.10;8.40;;;;;;;7.55;71.94;101693.94;4999012;28;20070;-69
2022/05/01 00:13:11;;;;;;;9.13;8.32;;;;;;;7.56;71.83;101701.75;4997606;28;20024;-70
2022/05/01 00:15:37;;;;;;;10.50;8.95;;;;;;;7.48;72.01;101693.44;4999713;28;20984;-70
2022/05/01 00:18:03;;;;;;;12.35;9.75;;;;;;;7.33;72.95;101694.38;4987499;28;20001;-70
2022/05/01 00:20:28;;;;;;;10.57;9.55;;;;;;;7.34;73.25;101693.44;4970532;28;20005;-70
2022/05/01 00:22:54;;;;;;;11.15;9.73;;;;;;;7.29;72.95;101687.59;5004676;28;20715;-70
2022/05/01 00:25:19;;;;;;;14.57;9.60;;;;;;;7.35;72.79;101681.97;5006354;28;20240;-71
2022/05/01 00:27:44;;;;;;;10.10;9.07;;;;;;;7.36;73.18;101681.03;4986014;28;20074;-71
2022/05/01 00:30:10;;;;;;;9.48;8.65;;;;;;;7.26;73.21;101678.09;4998945;28;20020;-71
2022/05/01 00:38:04;;;;;;;9.38;8.57;;;;;;;7.07;73.89;101673.09;5008013;28;20052;-71
2022/05/01 00:40:29;;;;;;;9.68;8.60;;;;;;;7.02;74.27;101677.78;4984713;28;20338;-70
2022/05/01 00:42:54;;;;;;;9.13;8.20;;;;;;;6.97;74.00;101671.97;5015349;28;20506;-70
2022/05/01 00:45:20;;;;;;;9.70;8.90;;;;;;;6.85;74.28;101678.75;4986558;28;20348;-70
2022/05/01 00:47:45;;;;;;;10.13;8.75;;;;;;;6.78;74.91;101673.03;4986511;28;20881;-70
2022/05/01 00:50:12;;;;;;;10.48;9.10;;;;;;;6.75;74.61;101675.81;4973832;28;20173;-70
2022/05/01 00:52:37;;;;;;;9.80;8.90;;;;;;;6.76;74.99;101671.44;5024477;28;20327;-69
2022/05/01 00:55:03;;;;;;;8.88;7.95;;;;;;;6.69;74.84;101676.19;5006952;28;20025;-69
2022/05/01 00:57:28;;;;;;;10.32;9.32;;;;;;;6.65;74.79;101675.50;5008161;28;20266;-69
2022/05/01 00:59:54;;;;;;;10.40;9.30;;;;;;;6.52;75.26;101672.72;4987438;28;20013;-72
2022/05/01 01:02:19;;;;;;;12.40;9.82;;;;;;;6.53;75.27;101679.69;5001836;28;20025;-70
2022/05/01 01:04:45;;;;;;;11.00;10.00;;;;;;;6.43;75.46;101678.53;5019368;28;20110;-70
2022/05/01 01:07:10;;;;;;;10.98;9.82;;;;;;;6.42;75.89;101676.84;5022812;28;20015;-70
2022/05/01 01:09:36;;;;;;;11.65;10.10;;;;;;;6.33;76.02;101666.81;5016315;28;20655;-70
2022/05/01 01:14:46;;;;;;;11.38;9.77;;;;;;;6.35;75.74;101670.22;4984645;28;20036;-71
2022/05/01 01:17:12;;;;;;;10.38;9.38;;;;;;;6.34;75.71;101668.53;4964555;28;20022;-71
2022/05/01 01:19:37;;;;;;;10.63;9.63;;;;;;;6.31;76.05;101671.34;5000699;28;20268;-70
2022/05/01 01:22:03;;;;;;;12.43;9.75;;;;;;;6.27;76.13;101677.69;5014577;28;20451;-70
2022/05/01 01:24:37;;;;;;;10.85;9.48;;;;;;;6.19;76.63;101678.97;4961663;28;20176;-70
2022/05/01 01:27:02;;;;;;;11.30;10.10;;;;;;;6.19;76.73;101671.09;4984478;28;20013;-71
2022/05/01 01:32:12;;;;;;;10.77;9.73;;;;;;;6.09;76.97;101669.91;5018657;28;20004;-70
2022/05/01 01:34:37;;;;;;;12.52;9.90;;;;;;;6.05;77.04;101672.78;4984633;28;20274;-70
2022/05/01 01:37:04;;;;;;;12.38;10.15;;;;;;;6.00;76.57;101665.16;4978317;28;20029;-71
2022/05/01 01:39:30;;;;;;;10.45;9.30;;;;;;;6.01;76.85;101672.09;5000816;28;20013;-70
2022/05/01 01:41:55;;;;;;;10.88;9.57;;;;;;;5.96;77.25;101674.09;4981586;28;20030;-69
2022/05/01 01:44:20;;;;;;;11.10;9.60;;;;;;;5.94;77.23;101687.31;4942500;28;20049;-69
2022/05/01 01:46:46;;;;;;;10.57;9.52;;;;;;;5.91;76.79;101684.88;4973888;28;20982;-70
2022/05/01 01:49:11;;;;;;;10.90;9.85;;;;;;;5.84;77.27;101684.34;4962504;28;20523;-71
2022/05/01 01:51:37;;;;;;;12.82;9.82;;;;;;;5.82;77.34;101683.59;4960721;28;20025;-70
2022/05/01 01:54:04;;;;;;;11.95;10.00;;;;;;;5.79;77.17;101682.88;4963053;28;20060;-70
2022/05/01 01:56:29;;;;;;;10.60;9.50;;;;;;;5.74;77.48;101680.53;4991187;28;20087;-68
2022/05/01 01:58:54;;;;;;;12.63;9.93;;;;;;;5.71;77.48;101685.94;4999182;28;20022;-70
2022/05/01 02:01:20;;;;;;;10.27;9.27;;;;;;;5.89;76.88;101678.00;4962551;28;20163;-72
2022/05/01 02:03:45;;;;;;;10.02;9.13;;;;;;;5.82;76.59;101682.72;4965022;28;20071;-70
2022/05/01 02:06:11;;;;;;;10.02;8.88;;;;;;;5.71;77.13;101685.94;5009540;28;20030;-70
2022/05/01 02:08:36;;;;;;;9.55;8.75;;;;;;;5.65;77.49;101687.13;4979851;28;20014;-69
2022/05/01 02:11:05;;;;;;;10.25;9.25;;;;;;;5.61;77.28;101680.34;4984866;28;20017;-69
2022/05/01 02:13:30;;;;;;;10.40;9.40;;;;;;;5.81;76.85;101673.13;4971101;28;20076;-71
2022/05/01 02:15:55;;;;;;;9.77;8.88;;;;;;;5.81;76.41;101681.00;5003689;27;20013;-71
2022/05/01 02:18:21;;;;;;;10.75;9.73;;;;;;;5.96;75.66;101679.34;5019843;27;20903;-69
2022/05/01 02:23:30;;;;;;;11.10;10.00;;;;;;;6.05;74.93;101683.28;5015463;28;20052;-71
2022/05/01 02:25:55;;;;;;;11.52;9.50;;;;;;;5.83;75.43;101674.75;4963989;28;20014;-70
2022/05/01 02:28:21;;;;;;;11.30;10.02;;;;;;;5.71;75.37;101667.56;4997591;28;20914;-70
2022/05/01 02:30:46;;;;;;;13.48;10.48;;;;;;;5.62;75.85;101671.50;5000231;28;20018;-69
2022/05/01 02:33:12;;;;;;;11.70;9.88;;;;;;;5.59;76.70;101676.09;4975305;28;20030;-69
2022/05/01 02:35:37;;;;;;;12.20;9.82;;;;;;;5.44;76.55;101673.34;5000584;28;20014;-69
2022/05/01 02:38:03;;;;;;;11.77;9.60;;;;;;;5.42;76.49;101675.19;5001482;28;20136;-69
2022/05/01 02:40:29;;;;;;;11.73;10.57;;;;;;;5.32;77.03;101676.59;4998592;28;20002;-69
2022/05/01 02:42:58;;;;;;;13.90;10.25;;;;;;;5.24;78.00;101674.34;4950078;28;20009;-69
2022/05/01 02:45:24;;;;;;;11.65;10.45;;;;;;;5.15;77.62;101665.19;4980716;28;20038;-69
2022/05/01 02:47:50;;;;;;;10.38;9.45;;;;;;;5.18;77.68;101669.44;4965836;28;20017;-69
2022/05/01 02:50:15;;;;;;;11.48;9.85;;;;;;;5.13;77.40;101669.69;4980626;28;20045;-69
2022/05/01 02:52:40;;;;;;;11.10;10.10;;;;;;;5.11;77.61;101666.28;4977204;28;20653;-69
2022/05/01 02:55:06;;;;;;;10.25;9.32;;;;;;;5.05;77.78;101669.22;4995569;28;20328;-70
2022/05/01 02:57:31;;;;;;;11.10;9.90;;;;;;;4.92;77.96;101660.25;4995584;28;20006;-69
2022/05/01 02:59:57;;;;;;;11.50;10.25;;;;;;;5.02;77.55;101663.28;4961080;28;20022;-69
2022/05/01 03:02:22;;;;;;;11.38;10.18;;;;;;;4.94;77.68;101663.69;4980272;28;20017;-69
2022/05/01 03:04:48;;;;;;;15.10;10.38;;;;;;;4.90;77.65;101659.50;4973050;28;20281;-68
2022/05/01 03:07:15;;;;;;;11.52;10.38;;;;;;;4.82;78.29;101660.75;4997312;28;20754;-69
2022/05/01 03:09:41;;;;;;;11.30;10.18;;;;;;;4.79;78.77;101655.66;4976692;28;20006;-70
2022/05/01 03:12:07;;;;;;;11.20;10.07;;;;;;;4.84;78.04;101662.41;4962600;28;20006;-70
2022/05/01 03:14:33;;;;;;;11.20;10.20;;;;;;;4.85;77.86;101657.13;4976936;28;20013;-70
2022/05/01 03:16:58;;;;;;;15.15;10.57;;;;;;;4.76;77.90;101650.53;4980017;28;20236;-70
2022/05/01 03:22:11;;;;;;;11.45;10.30;;;;;;;4.75;78.37;101648.88;4962457;28;20688;-71
2022/05/01 03:24:38;;;;;;;10.65;9.70;;;;;;;4.75;77.78;101651.50;4961837;28;20902;-69
2022/05/01 03:27:04;;;;;;;11.80;10.60;;;;;;;4.67;78.11;101648.41;4960469;28;20021;-71
2022/05/01 03:29:29;;;;;;;11.70;10.50;;;;;;;4.69;78.50;101645.69;4962083;28;20129;-69
2022/05/01 03:31:55;;;;;;;11.07;10.07;;;;;;;4.82;77.84;101645.00;4979754;28;20018;-70
2022/05/01 03:34:21;;;;;;;11.18;10.07;;;;;;;5.04;76.95;101635.19;4980129;28;20804;-69
2022/05/01 03:36:47;;;;;;;11.88;9.75;;;;;;;5.27;75.72;101644.50;4958438;28;20521;-71
2022/05/01 03:39:13;;;;;;;10.63;9.52;;;;;;;5.25;74.95;101638.50;4974750;28;20002;-71
2022/05/01 03:41:38;;;;;;;12.05;9.75;;;;;;;4.96;75.96;101640.81;4956029;28;20010;-70
2022/05/01 03:44:04;;;;;;;11.55;10.40;;;;;;;5.07;76.31;101638.50;4987220;28;20930;-70
2022/05/01 03:46:30;;;;;;;10.45;9.45;;;;;;;5.12;75.13;101639.13;4943679;28;20537;-71
2022/05/01 03:48:55;;;;;;;10.48;9.50;;;;;;;5.14;75.26;101644.28;4977551;28;20268;-71
2022/05/01 03:51:21;;;;;;;11.98;10.02;;;;;;;4.99;75.46;101640.66;4943860;28;20126;-70
2022/05/01 03:53:46;;;;;;;10.90;9.90;;;;;;;5.11;75.21;101650.53;4968598;28;20027;-69
2022/05/01 03:56:11;;;;;;;10.43;9.43;;;;;;;4.85;76.04;101643.16;4979332;28;20418;-69
2022/05/01 03:58:38;;;;;;;12.32;10.98;;;;;;;4.72;76.84;101643.75;4997660;28;20049;-69
2022/05/01 04:01:03;;;;;;;11.50;10.40;;;;;;;4.88;76.36;101637.75;4944079;28;20002;-70
2022/05/01 04:03:28;;;;;;;10.88;9.77;;;;;;;5.00;76.18;101631.88;4962986;28;20017;-69
2022/05/01 04:05:54;;;;;;;9.85;8.95;;;;;;;4.97;75.66;101637.28;4978934;28;20013;-72
2022/05/01 04:08:20;;;;;;;10.48;9.32;;;;;;;4.96;75.74;101635.59;5000152;28;20881;-69
2022/05/01 04:10:46;;;;;;;11.27;9.73;;;;;;;4.78;76.43;101630.34;4995621;28;20021;-69
2022/05/01 04:13:12;;;;;;;13.30;10.48;;;;;;;4.63;77.02;101631.13;4979405;28;20123;-70
2022/05/01 04:15:37;;;;;;;11.85;10.70;;;;;;;4.56;77.45;101632.34;4956853;28;20571;-70
2022/05/01 04:18:06;;;;;;;11.60;10.40;;;;;;;4.62;77.50;101627.63;4978715;28;20029;-70
2022/05/01 04:20:32;;;;;;;10.65;9.75;;;;;;;4.91;76.31;101625.34;4928999;28;19999;-69
2022/05/01 04:22:58;;;;;;;11.10;10.00;;;;;;;4.92;76.16;101628.78;4940741;28;20023;-69
2022/05/01 04:25:26;;;;;;;10.85;9.93;;;;;;;5.01;75.66;101633.59;4925804;28;20120;-70
2022/05/01 04:28:01;;;;;;;10.45;9.50;;;;;;;4.90;75.85;101635.91;4925109;28;20015;-69
2022/05/01 04:30:27;;;;;;;11.40;10.38;;;;;;;4.56;76.57;101627.13;4938684;28;20350;-70
2022/05/01 04:32:56;;;;;;;10.88;9.88;;;;;;;4.36;77.64;101631.56;4939132;28;20356;-70
2022/05/01 04:35:43;;;;;;;12.57;10.43;;;;;;;4.31;78.22;101638.78;4988230;28;20014;-69
2022/05/01 04:38:10;;;;;;;11.57;10.23;;;;;;;4.29;78.40;101635.41;4978544;28;20106;-71
2022/05/01 04:40:40;;;;;;;11.40;10.30;;;;;;;4.32;78.21;101645.72;4961952;28;20083;-71
2022/05/01 04:43:09;;;;;;;11.25;10.25;;;;;;;4.38;78.92;101634.09;4981769;28;20022;-69
2022/05/01 04:45:36;;;;;;;12.57;10.50;;;;;;;4.55;77.91;101639.34;5006291;28;20053;-70
2022/05/01 04:48:02;;;;;;;11.90;10.73;;;;;;;4.44;77.84;101645.13;4988077;28;20807;-68
2022/05/01 04:50:27;;;;;;;11.48;10.30;;;;;;;4.40;78.36;101637.47;4999255;28;20017;-70
2022/05/01 04:52:53;;;;;;;11.77;10.57;;;;;;;4.44;78.26;101641.66;4996319;28;20207;-69
2022/05/01 04:55:18;;;;;;;11.07;10.05;;;;;;;4.72;77.61;101643.75;4986653;28;20125;-69
2022/05/01 04:57:44;;;;;;;11.25;10.15;;;;;;;4.62;78.00;101645.16;4953190;28;20022;-71
2022/05/01 05:00:10;;;;;;;10.95;9.90;;;;;;;4.60;77.85;101649.63;4967660;28;20014;-69
2022/05/01 05:02:36;;;;;;;11.60;10.52;;;;;;;4.54;78.45;101642.03;4981702;28;20384;-68
2022/05/01 05:05:03;;;;;;;11.68;10.57;;;;;;;4.50;78.89;101640.50;4973756;28;20034;-71
2022/05/01 05:07:29;;;;;;;12.07;10.38;;;;;;;4.62;78.66;101637.28;5002357;28;20431;-69
2022/05/01 05:09:54;;;;;;;11.45;10.35;;;;;;;4.63;78.42;101649.47;5008705;28;20044;-71
2022/05/01 05:12:20;;;;;;;11.60;10.05;;;;;;;4.82;78.38;101644.16;4993996;28;20012;-71
2022/05/01 05:14:47;;;;;;;11.02;9.90;;;;;;;4.87;78.07;101646.56;4985075;28;20500;-70
2022/05/01 05:17:13;;;;;;;11.73;10.52;;;;;;;4.91;77.77;101648.09;5000654;28;20025;-68
2022/05/01 05:19:39;;;;;;;11.43;9.73;;;;;;;5.08;77.28;101649.88;4983459;28;20013;-69
2022/05/01 05:22:04;;;;;;;12.20;10.10;;;;;;;5.10;77.60;101648.00;4980151;27;20015;-69
2022/05/01 05:24:30;;;;;;;11.45;10.30;;;;;;;5.24;77.37;101644.66;4984627;27;20034;-70
2022/05/01 05:26:56;;;;;;;11.10;10.10;;;;;;;5.22;77.14;101647.38;4984459;28;20010;-69
2022/05/01 05:29:22;;;;;;;11.05;9.95;;;;;;;5.22;77.51;101659.63;4986222;28;20479;-69
2022/05/01 05:31:47;;;;;;;11.55;10.38;;;;;;;5.13;78.20;101661.81;5017085;28;19997;-69
2022/05/01 05:34:12;;;;;;;10.68;9.57;;;;;;;5.18;78.08;101655.47;5001409;28;20017;-69
2022/05/01 05:36:38;;;;;;;11.45;10.35;;;;;;;5.14;78.93;101665.28;5003667;28;20067;-69
2022/05/01 05:39:03;;;;;;;11.02;10.02;;;;;;;5.19;78.85;101665.03;4963378;28;20018;-70
2022/05/01 05:41:28;;;;;;;11.65;10.55;;;;;;;5.26;79.15;101674.28;4984440;28;20983;-69
2022/05/01 05:43:54;;;;;;;10.85;9.85;;;;;;;5.41;78.85;101670.84;4956600;28;20382;-70
2022/05/01 05:46:19;;;;;;;11.90;10.73;;;;;;;5.58;78.32;101663.88;4966285;28;20020;-70
2022/05/01 05:48:44;;;;;;;11.55;10.38;;;;;;;5.74;77.70;101664.75;4962971;28;20026;-70
2022/05/01 05:51:10;;;;;;;11.40;10.27;;;;;;;5.85;77.72;101662.41;4951889;28;20027;-69
2022/05/01 05:53:35;;;;;;;10.93;9.82;;;;;;;6.04;77.15;101666.69;4952418;28;20095;-71
2022/05/01 05:56:01;;;;;;;13.05;10.77;;;;;;;6.03;77.73;101678.09;4985587;28;20886;-69
2022/05/01 05:58:26;;;;;;;11.27;10.18;;;;;;;6.13;77.78;101675.81;4977789;28;20246;-69
2022/05/01 06:00:51;;;;;;;12.35;11.05;;;;;;;6.24;78.13;101678.72;4962512;28;20016;-69
2022/05/01 06:03:19;;;;;;;11.98;10.80;;;;;;;6.32;78.45;101686.19;4954132;28;20452;-70
2022/05/01 06:05:44;;;;;;;11.70;10.60;;;;;;;6.52;78.21;101674.53;4963301;28;20324;-68
2022/05/01 06:08:10;;;;;;;11.23;10.23;;;;;;;6.67;77.95;101672.78;4956631;28;20026;-69
2022/05/01 06:10:36;;;;;;;12.35;11.15;;;;;;;6.80;77.24;101671.16;4978092;28;20071;-70
2022/05/01 06:13:01;;;;;;;11.95;10.85;;;;;;;6.82;77.48;101677.16;4980004;28;20022;-70
2022/05/01 06:15:26;;;;;;;11.95;10.75;;;;;;;6.91;77.32;101674.94;4953329;28;20340;-70
2022/05/01 06:17:52;;;;;;;11.88;10.68;;;;;;;7.05;78.07;101665.28;4996406;28;20036;-69
2022/05/01 06:20:18;;;;;;;11.45;10.45;;;;;;;7.35;77.70;101671.44;4999234;28;20832;-71
2022/05/01 06:22:43;;;;;;;12.15;11.00;;;;;;;7.51;77.05;101680.09;4944381;28;19998;-70
2022/05/01 06:25:09;;;;;;;12.10;10.98;;;;;;;7.69;76.93;101680.75;4946945;28;20034;-70
2022/05/01 06:27:35;;;;;;;12.48;11.18;;;;;;;7.98;76.57;101671.97;4976481;28;20027;-69
2022/05/01 06:30:00;;;;;;;13.88;12.13;;;;;;;8.20;76.03;101668.81;5011108;28;20021;-70
2022/05/01 06:32:26;;;;;;;13.07;11.68;;;;;;;8.27;75.37;101672.75;4974411;28;20590;-70
2022/05/01 06:34:51;;;;;;;12.18;10.98;;;;;;;8.51;74.83;101669.50;4981954;28;20021;-70
2022/05/01 06:37:16;;;;;;;12.55;11.45;;;;;;;8.59;74.21;101668.03;4968560;28;20030;-70
2022/05/01 06:39:42;;;;;;;12.60;11.27;;;;;;;8.68;74.05;101671.03;4995196;28;20151;-70
2022/05/01 06:42:09;;;;;;;12.90;11.70;;;;;;;8.77;73.90;101666.00;5000197;28;20021;-70
2022/05/01 06:44:35;;;;;;;12.75;11.57;;;;;;;8.81;73.58;101669.25;4990778;28;20834;-70
2022/05/01 06:47:00;;;;;;;13.25;11.95;;;;;;;8.86;73.68;101666.34;4978559;28;20022;-70
2022/05/01 06:49:25;;;;;;;16.98;12.68;;;;;;;8.91;73.27;101665.06;4982792;28;21099;-69
2022/05/01 06:51:51;;;;;;;13.43;12.10;;;;;;;8.94;72.70;101664.84;4981501;28;20116;-69
2022/05/01 06:54:16;;;;;;;13.30;11.75;;;;;;;9.16;72.97;101673.94;4979924;28;20021;-70
2022/05/01 06:56:44;;;;;;;13.77;12.45;;;;;;;9.23;71.13;101669.94;4964560;28;20578;-71
2022/05/01 06:59:09;;;;;;;13.38;11.23;;;;;;;9.34;70.74;101671.84;4998667;28;20045;-70
2022/05/01 07:01:34;;;;;;;13.32;11.90;;;;;;;9.30;71.17;101669.53;4982364;28;20577;-73
2022/05/01 07:04:00;;;;;;;13.60;12.15;;;;;;;9.33;71.24;101682.53;4965278;28;20617;-72
2022/05/01 07:06:25;;;;;;;13.15;11.90;;;;;;;9.42;71.61;101676.63;4946898;28;20132;-71
2022/05/01 07:08:51;;;;;;;13.02;11.73;;;;;;;9.51;70.62;101675.97;4979199;28;20409;-72
2022/05/01 07:11:17;;;;;;;13.90;12.45;;;;;;;9.51;70.40;101673.31;4981366;28;20019;-71
2022/05/01 07:13:42;;;;;;;14.13;12.13;;;;;;;9.51;70.06;101673.31;4979672;28;20201;-70
2022/05/01 07:16:07;;;;;;;13.80;12.43;;;;;;;9.61;69.60;101679.66;4956874;28;20716;-70
2022/05/01 07:18:33;;;;;;;13.73;12.32;;;;;;;9.71;69.72;101676.38;4985361;28;20018;-70
2022/05/01 07:20:59;;;;;;;13.77;12.38;;;;;;;9.71;69.04;101669.28;4962217;28;20025;-70
2022/05/01 07:23:25;;;;;;;14.68;13.13;;;;;;;9.78;68.16;101673.16;4968669;28;20026;-70
2022/05/01 07:25:51;;;;;;;15.10;13.60;;;;;;;9.80;68.25;101673.09;4967651;28;20480;-70
2022/05/01 07:28:16;;;;;;;15.00;13.32;;;;;;;9.97;68.12;101671.88;4986205;28;20863;-71
2022/05/01 07:30:44;;;;;;;14.73;13.30;;;;;;;10.01;68.69;101672.50;4960233;28;20006;-71
2022/05/01 07:33:10;;;;;;;14.23;12.82;;;;;;;10.07;68.85;101669.44;4951525;28;20847;-70
2022/05/01 07:35:37;;;;;;;13.50;12.20;;;;;;;10.11;67.76;101670.88;4957655;28;20067;-70
2022/05/01 07:38:02;;;;;;;14.95;12.82;;;;;;;10.29;66.74;101664.25;4951965;28;20030;-70
2022/05/01 07:40:28;;;;;;;14.13;12.77;;;;;;;10.40;66.36;101662.66;4961786;28;20942;-72
2022/05/01 07:42:54;;;;;;;15.45;12.55;;;;;;;10.41;65.28;101667.84;4963351;28;20093;-70
2022/05/01 07:45:19;;;;;;;12.90;11.77;;;;;;;10.59;64.65;101670.94;4963745;28;20159;-70
2022/05/01 07:47:45;;;;;;;12.85;11.65;;;;;;;10.70;63.32;101661.34;4967568;28;20369;-73
2022/05/01 07:50:10;;;;;;;12.80;11.52;;;;;;;10.85;62.15;101675.22;4982691;28;20034;-70
2022/05/01 07:52:36;;;;;;;13.88;12.02;;;;;;;10.94;63.36;101675.38;4984216;28;20018;-70
2022/05/01 07:55:02;;;;;;;13.93;12.48;;;;;;;10.91;62.84;101672.94;4965831;28;20528;-70
2022/05/01 07:57:28;;;;;;;13.27;11.82;;;;;;;11.02;62.11;101676.59;4964906;28;20109;-70
2022/05/01 07:59:54;;;;;;;13.50;12.10;;;;;;;11.21;62.42;101676.88;4967548;28;20033;-69
2022/05/01 08:02:19;;;;;;;13.40;11.98;;;;;;;11.20;61.60;101669.06;4975952;28;20022;-69
2022/05/01 08:04:46;;;;;;;13.93;12.23;;;;;;;11.36;61.79;101664.25;4983889;28;20511;-70
2022/05/01 08:07:11;;;;;;;12.48;11.30;;;;;;;11.62;60.99;101674.59;4966031;28;20078;-70
2022/05/01 08:09:36;;;;;;;12.65;11.50;;;;;;;11.85;60.21;101664.84;4963299;28;20030;-70
2022/05/01 08:12:02;;;;;;;12.02;11.02;;;;;;;12.03;60.17;101670.53;4985442;28;20498;-69
2022/05/01 08:14:28;;;;;;;11.43;10.43;;;;;;;12.21;59.79;101665.50;5000424;28;20755;-70
2022/05/01 08:16:53;;;;;;;12.15;11.00;;;;;;;12.43;58.61;101669.09;4990695;28;20049;-70
2022/05/01 08:22:04;;;;;;;11.77;10.57;;;;;;;12.60;57.46;101665.03;4989522;28;20114;-72
2022/05/01 08:24:30;;;;;;;10.88;9.88;;;;;;;12.83;58.19;101665.75;4961037;28;20117;-70
2022/05/01 08:26:55;;;;;;;11.82;10.70;;;;;;;12.94;58.08;101665.69;4924923;28;20193;-70
2022/05/01 08:29:21;;;;;;;11.90;10.73;;;;;;;12.99;56.46;101662.66;4979635;28;20334;-72
2022/05/01 08:31:46;;;;;;;13.15;11.20;;;;;;;13.15;54.76;101664.84;4949343;28;20790;-70
2022/05/01 08:34:12;;;;;;;11.82;10.63;;;;;;;13.36;54.43;101663.03;4961710;28;20087;-70
2022/05/01 08:36:38;;;;;;;11.43;10.30;;;;;;;13.61;54.27;101663.56;4984209;28;20013;-71
2022/05/01 08:39:04;;;;;;;11.30;10.32;;;;;;;13.73;55.32;101665.16;4966991;28;20114;-70
2022/05/01 08:41:30;;;;;;;10.85;9.80;;;;;;;14.03;54.73;101655.44;4955788;28;20014;-70
2022/05/01 08:44:00;;;;;;;10.73;9.73;;;;;;;14.35;53.85;101654.34;4938272;28;21035;-71
2022/05/01 08:46:32;;;;;;;11.25;9.50;;;;;;;14.56;52.67;101656.88;4926785;28;20648;-71
2022/05/01 08:49:03;;;;;;;9.93;8.90;;;;;;;14.70;52.01;101658.31;4957111;28;20014;-71
2022/05/01 08:51:39;;;;;;;9.40;8.60;;;;;;;14.67;49.29;101649.78;4954664;28;20006;-70
2022/05/01 08:54:07;;;;;;;9.82;8.80;;;;;;;14.88;51.41;101650.44;4967711;28;20486;-70
2022/05/01 08:56:35;;;;;;;10.18;9.02;;;;;;;14.88;49.92;101645.09;4942971;28;20034;-71
2022/05/01 08:59:05;;;;;;;9.10;8.30;;;;;;;14.99;48.47;101643.25;4959452;28;20038;-71
2022/05/01 09:01:34;;;;;;;9.02;8.23;;;;;;;15.29;49.91;101645.69;4967764;28;20446;-71
2022/05/01 09:04:00;;;;;;;7.57;7.07;;;;;;;15.46;48.76;101651.25;4966340;28;20026;-70
2022/05/01 09:06:25;;;;;;;8.40;7.47;;;;;;;15.73;46.93;101655.75;4969531;28;20332;-71
2022/05/01 09:08:51;;;;;;;10.02;7.82;;;;;;;15.95;47.59;101653.72;4961421;28;20896;-71
2022/05/01 09:14:01;;;;;;;8.48;7.60;;;;;;;16.21;45.36;101653.81;4982647;28;20028;-71
2022/05/01 09:16:27;;;;;;;9.07;7.15;;;;;;;16.11;43.52;101645.88;4977263;28;20018;-71
2022/05/01 09:18:52;;;;;;;7.93;6.70;;;;;;;16.47;46.09;101639.72;4957534;28;20032;-69
2022/05/01 09:21:17;;;;;;;8.38;6.82;;;;;;;17.08;46.73;101640.69;4984168;28;20014;-70
2022/05/01 09:23:48;;;;;;;8.07;7.38;;;;;;;17.35;43.00;101644.19;4927809;28;20424;-70
2022/05/01 09:26:19;;;;;;;6.93;6.43;;;;;;;17.36;43.01;101643.19;4941824;28;20029;-69
2022/05/01 09:28:54;;;;;;;7.43;6.78;;;;;;;17.20;42.04;101637.75;4981344;28;20021;-69
2022/05/01 09:31:46;;;;;;;7.28;6.68;;;;;;;16.95;43.51;101646.47;4966616;28;20014;-69
2022/05/01 09:34:25;;;;;;;8.52;7.82;;;;;;;17.10;43.13;101644.03;4989665;28;20520;-69
2022/05/01 09:36:51;;;;;;;7.65;6.80;;;;;;;17.07;43.72;101640.84;4971680;28;20029;-70
2022/05/01 09:39:22;;;;;;;8.32;7.63;;;;;;;16.95;44.07;101640.25;4971327;28;20029;-71
2022/05/01 09:41:51;;;;;;;8.80;8.02;;;;;;;16.92;43.72;101643.25;4979495;28;20070;-69
2022/05/01 09:44:17;;;;;;;7.43;6.75;;;;;;;16.76;42.88;101642.09;5016726;28;20863;-70
2022/05/01 09:46:44;;;;;;;8.30;7.60;;;;;;;16.39;42.54;101643.16;4996996;28;20028;-71
2022/05/01 09:49:12;;;;;;;7.18;6.68;;;;;;;16.48;43.65;101636.91;4983451;28;20025;-71
2022/05/01 09:51:39;;;;;;;8.38;6.95;;;;;;;16.61;43.33;101643.66;4996061;28;20001;-70
2022/05/01 09:54:05;;;;;;;7.10;6.43;;;;;;;16.47;44.11;101629.03;4997897;28;20518;-70
2022/05/01 09:56:44;;;;;;;6.60;6.10;;;;;;;16.62;42.84;101642.66;4978921;28;20014;-71
2022/05/01 09:59:10;;;;;;;6.25;5.45;;;;;;;16.56;44.09;101635.28;4978548;28;20872;-70
2022/05/01 10:01:35;;;;;;;6.55;5.60;;;;;;;16.31;43.12;101643.91;4942515;28;20019;-70
2022/05/01 10:04:02;;;;;;;6.18;5.63;;;;;;;16.13;42.77;101646.56;5000097;28;20047;-72
2022/05/01 10:06:29;;;;;;;6.28;5.70;;;;;;;16.16;42.82;101641.91;4950365;28;20491;-70
2022/05/01 10:08:54;;;;;;;6.65;5.95;;;;;;;15.88;43.28;101639.31;4985913;28;20030;-71
2022/05/01 10:11:19;;;;;;;5.80;5.40;;;;;;;15.86;43.33;101634.09;4977128;28;20022;-71
2022/05/01 10:13:45;;;;;;;5.55;5.15;;;;;;;16.03;42.35;101643.09;4966573;28;20140;-71
2022/05/01 10:16:15;;;;;;;5.45;5.05;;;;;;;15.77;42.23;101632.31;4995793;28;20025;-71
2022/05/01 10:18:40;;;;;;;6.05;5.40;;;;;;;15.75;43.79;101640.47;4983325;28;20029;-70
2022/05/01 10:21:06;;;;;;;5.38;4.88;;;;;;;15.89;43.76;101633.81;4989704;28;20324;-73
2022/05/01 10:23:32;;;;;;;6.38;5.53;;;;;;;15.91;42.22;101631.00;4988192;28;20021;-70
2022/05/01 10:26:13;;;;;;;5.65;5.35;;;;;;;15.93;43.75;101639.69;4953396;28;20095;-71
2022/05/01 10:28:50;;;;;;;5.65;5.18;;;;;;;16.09;43.33;101631.84;4991509;28;20022;-70
2022/05/01 10:34:38;;;;;;;5.43;4.97;;;;;;;16.33;42.27;101632.22;4992924;28;20048;-74
2022/05/01 10:37:23;;;;;;;;;;;;;;;16.31;41.30;101627.03;4990516;28;20464;-70
2022/05/01 10:39:49;;;;;;;5.75;5.30;;;;;;;16.53;40.58;101625.75;4993588;28;19909;-71
2022/05/01 10:42:32;;;;;;;5.82;5.43;;;;;;;16.99;41.23;101617.56;4978575;28;20061;-71
2022/05/01 10:44:57;;;;;;;6.72;5.30;;;;;;;17.65;40.84;101616.06;4969074;28;20046;-70
2022/05/01 10:47:35;;;;;;;5.63;5.20;;;;;;;18.29;39.07;101606.66;4980578;28;20510;-71
2022/05/01 10:50:08;;;;;;;5.90;5.40;;;;;;;19.30;37.47;101599.16;4980634;28;20017;-71
2022/05/01 10:52:33;;;;;;;5.53;5.00;;;;;;;20.86;34.99;101595.44;4962092;28;20018;-70
2022/05/01 10:55:03;;;;;;;4.97;4.53;;;;;;;20.70;34.17;101596.47;4979966;28;20105;-70
2022/05/01 10:57:29;;;;;;;5.85;5.18;;;;;;;19.96;34.62;101593.50;5025596;28;20059;-71
2022/05/01 11:00:05;;;;;;;5.90;5.38;;;;;;;19.20;35.66;101594.84;5005103;28;20033;-73
2022/05/01 11:02:38;;;;;;;5.22;4.80;;;;;;;19.09;35.99;101592.53;5000331;28;20372;-71
2022/05/01 11:05:04;;;;;;;5.55;4.90;;;;;;;18.90;36.90;101585.72;5003081;28;20022;-71
2022/05/01 11:07:30;;;;;;;5.45;5.05;;;;;;;18.59;37.29;101578.34;4964294;28;20014;-70
2022/05/01 11:09:58;;;;;;;5.50;5.00;;;;;;;18.41;36.88;101583.06;4976645;28;20595;-70
2022/05/01 11:12:24;;;;;;;5.43;4.93;;;;;;;18.25;36.50;101583.91;4990327;28;20009;-71
2022/05/01 11:14:56;;;;;;;5.80;5.30;;;;;;;18.43;36.44;101587.25;4988477;28;20423;-71
2022/05/01 11:17:36;;;;;;;5.72;5.13;;;;;;;20.05;36.03;101581.66;5023794;28;20014;-72
2022/05/01 11:20:14;;;;;;;6.97;4.88;;;;;;;21.22;34.83;101577.72;5021558;28;20108;-71
2022/05/01 11:22:39;;;;;;;5.95;5.30;;;;;;;21.69;32.35;101572.94;4998714;28;20022;-71
2022/05/01 11:25:07;;;;;;;5.13;4.72;;;;;;;22.52;32.52;101565.25;4978531;28;20177;-71
2022/05/01 11:27:52;;;;;;;5.90;5.40;;;;;;;22.49;33.47;101568.31;4976018;28;20022;-71
2022/05/01 11:30:26;;;;;;;5.13;4.85;;;;;;;22.03;32.13;101566.03;5032465;28;20558;-72
2022/05/01 11:32:58;;;;;;;5.88;5.38;;;;;;;21.36;31.66;101562.56;5014794;28;20029;-71
2022/05/01 11:36:00;;;;;;;5.00;4.60;;;;;;;20.87;33.70;101545.16;4993861;28;20092;-71
2022/05/01 11:38:48;;;;;;;5.57;5.10;;;;;;;20.85;33.87;101564.19;4997745;28;20022;-71
2022/05/01 11:41:15;;;;;;;5.00;4.60;;;;;;;20.91;32.15;101549.16;4999671;28;20021;-72
2022/05/01 11:43:40;;;;;;;5.40;4.90;;;;;;;20.80;35.34;101546.91;5000925;28;19998;-71
2022/05/01 11:46:06;;;;;;;5.55;5.15;;;;;;;21.67;34.04;101554.25;4992788;28;20073;-73